Terminal Aerodrome Forecast
Issued by NWS Jackson, KY

Home | Current Version | Previous Version | Graphics & Text | Print | Product List | Glossary On
Versions: 1 2 3 4 5 6 7 8 9 10 11 12 13 14 15 16
000
FTUS43 KJKL 300426 AAB
TAFJKL
TAF AMD
KJKL 300426Z 3004/3024 19005KT P6SM OVC060 WS015/22045KT
     FM300700 VRB04KT 4SM -SHRA BR SCT030 OVC050
     FM300900 VRB04KT P6SM BKN050
     FM301300 28008KT P6SM FEW060 SCT200=

USA.gov is the U.S. government's official web portal to all federal, state and local government web resources and services.